PWSweather.com
Personal Weather Stations
Station Observations
ITROMSHA6
HarstadNO 9407

HarstadNO 9407

Lat: 68.7814767, Lon: 16.5297091

Elevation: 145

Station Type: Davis Vantage Pro2

High Low Average
Temperature 36.1°F2.3°C 17.4°F-8.1°C 26.2°F-3.2°C
Dew Point 28.6°F-1.9°C 12.6°F-10.8°C 20.3°F-6.5°C
Winds 10.0 mph 16.1 kmh Calm Calm 4.0 mph SW6.4 kmh SW
Wind Gusts 14.0 mph22.5 kmh -- 2.0 mph3.2 kmh
Humidity 90% 68% 78%
Pressure 29.89 in1012.2 mb 29.69 in1005.4 mb -
Precipitation 0.00 in0.0 mm - -
Hour Temp Dew Point Humidity Winds Wind Gusts Pressure Precip Precip Rate Daily Precip Total
12:00 AM 27.0°F-2.8°C 18.5°F-7.5°C 70% 8.0 mph SW12.9 kmh SW -- 29.89 in1012.2 mb 0.00 in0.0 mm 0.00 in0.0 mm 0.00 in0.0 mm
12:05 AM 27.7°F-2.4°C 18.9°F-7.3°C 69% Calm Calm -- 29.88 in1011.9 mb 0.00 in0.0 mm 0.00 in0.0 mm 0.00 in0.0 mm
12:10 AM 27.8°F-2.3°C 19.0°F-7.2°C 69% 1.0 mph SSW1.6 kmh SSW -- 29.89 in1012.2 mb 0.00 in0.0 mm 0.00 in0.0 mm 0.00 in0.0 mm
12:15 AM 28.1°F-2.2°C 18.9°F-7.3°C 68% 7.0 mph SSW11.3 kmh SSW -- 29.88 in1011.9 mb 0.00 in0.0 mm 0.00 in0.0 mm 0.00 in0.0 mm
12:20 AM 28.3°F-2.1°C 19.0°F-7.2°C 68% 5.0 mph WSW8.0 kmh WSW 10.0 mph16.1 kmh 29.88 in1011.9 mb 0.00 in0.0 mm 0.00 in0.0 mm 0.00 in0.0 mm
12:25 AM 28.4°F-2.0°C 19.2°F-7.1°C 68% 5.0 mph SW8.0 kmh SW -- 29.88 in1011.9 mb 0.00 in0.0 mm 0.00 in0.0 mm 0.00 in0.0 mm
12:30 AM 28.5°F-1.9°C 19.4°F-7.0°C 68% 1.0 mph SW1.6 kmh SW -- 29.88 in1011.9 mb 0.00 in0.0 mm 0.00 in0.0 mm 0.00 in0.0 mm
12:35 AM 28.7°F-1.8°C 19.6°F-6.9°C 68% 2.0 mph S3.2 kmh S -- 29.88 in1011.9 mb 0.00 in0.0 mm 0.00 in0.0 mm 0.00 in0.0 mm
12:40 AM 27.8°F-2.3°C 19.0°F-7.2°C 69% 2.0 mph WSW3.2 kmh WSW -- 29.88 in1011.9 mb 0.00 in0.0 mm 0.00 in0.0 mm 0.00 in0.0 mm
12:45 AM 27.4°F-2.6°C 19.2°F-7.1°C 71% 4.0 mph SW6.4 kmh SW 6.0 mph9.7 kmh 29.88 in1011.9 mb 0.00 in0.0 mm 0.00 in0.0 mm 0.00 in0.0 mm
12:50 AM 26.9°F-2.8°C 19.2°F-7.1°C 72% 3.0 mph SW4.8 kmh SW -- 29.88 in1011.9 mb 0.00 in0.0 mm 0.00 in0.0 mm 0.00 in0.0 mm
12:55 AM 27.1°F-2.7°C 19.0°F-7.2°C 71% 2.0 mph SW3.2 kmh SW -- 29.88 in1011.9 mb 0.00 in0.0 mm 0.00 in0.0 mm 0.00 in0.0 mm
01:00 AM 27.3°F-2.6°C 19.2°F-7.1°C 71% 1.0 mph SW1.6 kmh SW -- 29.88 in1011.9 mb 0.00 in0.0 mm 0.00 in0.0 mm 0.00 in0.0 mm
01:05 AM 27.1°F-2.7°C 19.0°F-7.2°C 71% 3.0 mph SW4.8 kmh SW -- 29.88 in1011.9 mb 0.00 in0.0 mm 0.00 in0.0 mm 0.00 in0.0 mm
01:10 AM 26.3°F-3.2°C 18.1°F-7.7°C 71% 5.0 mph SW8.0 kmh SW 4.0 mph6.4 kmh 29.88 in1011.9 mb 0.00 in0.0 mm 0.00 in0.0 mm 0.00 in0.0 mm
01:15 AM 25.5°F-3.6°C 18.1°F-7.7°C 73% 5.0 mph WSW8.0 kmh WSW -- 29.88 in1011.9 mb 0.00 in0.0 mm 0.00 in0.0 mm 0.00 in0.0 mm
01:20 AM 25.0°F-3.9°C 18.0°F-7.8°C 74% 2.0 mph SW3.2 kmh SW -- 29.87 in1011.5 mb 0.00 in0.0 mm 0.00 in0.0 mm 0.00 in0.0 mm
01:25 AM 24.9°F-3.9°C 18.5°F-7.5°C 76% 5.0 mph WSW8.0 kmh WSW -- 29.87 in1011.5 mb 0.00 in0.0 mm 0.00 in0.0 mm 0.00 in0.0 mm
01:30 AM 24.7°F-4.1°C 17.8°F-7.9°C 75% 6.0 mph W9.7 kmh W -- 29.87 in1011.5 mb 0.00 in0.0 mm 0.00 in0.0 mm 0.00 in0.0 mm
01:35 AM 24.9°F-3.9°C 18.1°F-7.7°C 75% 6.0 mph SW9.7 kmh SW 6.0 mph9.7 kmh 29.87 in1011.5 mb 0.00 in0.0 mm 0.00 in0.0 mm 0.00 in0.0 mm
01:40 AM 24.0°F-4.4°C 17.2°F-8.2°C 75% 3.0 mph SW4.8 kmh SW -- 29.87 in1011.5 mb 0.00 in0.0 mm 0.00 in0.0 mm 0.00 in0.0 mm
01:45 AM 23.8°F-4.6°C 17.2°F-8.2°C 76% 5.0 mph W8.0 kmh W -- 29.87 in1011.5 mb 0.00 in0.0 mm 0.00 in0.0 mm 0.00 in0.0 mm
01:50 AM 23.1°F-4.9°C 16.7°F-8.5°C 76% 6.0 mph WSW9.7 kmh WSW -- 29.87 in1011.5 mb 0.00 in0.0 mm 0.00 in0.0 mm 0.00 in0.0 mm
01:55 AM 22.2°F-5.4°C 16.2°F-8.8°C 77% 5.0 mph WSW8.0 kmh WSW -- 29.87 in1011.5 mb 0.00 in0.0 mm 0.00 in0.0 mm 0.00 in0.0 mm
02:00 AM 22.0°F-5.6°C 16.2°F-8.8°C 78% 8.0 mph WSW12.9 kmh WSW 9.0 mph14.5 kmh 29.88 in1011.9 mb 0.00 in0.0 mm 0.00 in0.0 mm 0.00 in0.0 mm
02:05 AM 21.5°F-5.8°C 15.8°F-9.0°C 78% 6.0 mph WSW9.7 kmh WSW -- 29.88 in1011.9 mb 0.00 in0.0 mm 0.00 in0.0 mm 0.00 in0.0 mm
02:10 AM 21.2°F-6.0°C 15.8°F-9.0°C 79% 8.0 mph WSW12.9 kmh WSW -- 29.87 in1011.5 mb 0.00 in0.0 mm 0.00 in0.0 mm 0.00 in0.0 mm
02:15 AM 21.1°F-6.1°C 15.3°F-9.3°C 78% 5.0 mph WSW8.0 kmh WSW -- 29.87 in1011.5 mb 0.00 in0.0 mm 0.00 in0.0 mm 0.00 in0.0 mm
02:20 AM 20.5°F-6.4°C 14.7°F-9.6°C 78% 9.0 mph W14.5 kmh W -- 29.87 in1011.5 mb 0.00 in0.0 mm 0.00 in0.0 mm 0.00 in0.0 mm
02:25 AM 21.1°F-6.1°C 15.6°F-9.1°C 79% 8.0 mph WSW12.9 kmh WSW 10.0 mph16.1 kmh 29.87 in1011.5 mb 0.00 in0.0 mm 0.00 in0.0 mm 0.00 in0.0 mm
02:30 AM 21.0°F-6.1°C 14.9°F-9.5°C 77% 7.0 mph SW11.3 kmh SW -- 29.87 in1011.5 mb 0.00 in0.0 mm 0.00 in0.0 mm 0.00 in0.0 mm
02:35 AM 19.7°F-6.8°C 14.0°F-10.0°C 78% 9.0 mph W14.5 kmh W -- 29.87 in1011.5 mb 0.00 in0.0 mm 0.00 in0.0 mm 0.00 in0.0 mm
02:40 AM 19.5°F-6.9°C 13.8°F-10.1°C 78% 8.0 mph WSW12.9 kmh WSW -- 29.87 in1011.5 mb 0.00 in0.0 mm 0.00 in0.0 mm 0.00 in0.0 mm
02:45 AM 19.5°F-6.9°C 14.2°F-9.9°C 79% 8.0 mph SW12.9 kmh SW -- 29.87 in1011.5 mb 0.00 in0.0 mm 0.00 in0.0 mm 0.00 in0.0 mm
02:50 AM 19.5°F-6.9°C 14.2°F-9.9°C 79% 6.0 mph WSW9.7 kmh WSW 10.0 mph16.1 kmh 29.87 in1011.5 mb 0.00 in0.0 mm 0.00 in0.0 mm 0.00 in0.0 mm
02:55 AM 19.1°F-7.2°C 13.3°F-10.4°C 78% 6.0 mph SW9.7 kmh SW -- 29.87 in1011.5 mb 0.00 in0.0 mm 0.00 in0.0 mm 0.00 in0.0 mm
03:00 AM 19.3°F-7.1°C 13.8°F-10.1°C 79% Calm Calm -- 29.87 in1011.5 mb 0.00 in0.0 mm 0.00 in0.0 mm 0.00 in0.0 mm
03:05 AM 19.4°F-7.0°C 14.0°F-10.0°C 79% 3.0 mph WSW4.8 kmh WSW -- 29.87 in1011.5 mb 0.00 in0.0 mm 0.00 in0.0 mm 0.00 in0.0 mm
03:10 AM 19.7°F-6.8°C 14.4°F-9.8°C 79% 5.0 mph WSW8.0 kmh WSW -- 29.87 in1011.5 mb 0.00 in0.0 mm 0.00 in0.0 mm 0.00 in0.0 mm
03:15 AM 19.5°F-6.9°C 13.8°F-10.1°C 78% 6.0 mph WSW9.7 kmh WSW 7.0 mph11.3 kmh 29.87 in1011.5 mb 0.00 in0.0 mm 0.00 in0.0 mm 0.00 in0.0 mm
03:20 AM 19.5°F-6.9°C 13.8°F-10.1°C 78% 7.0 mph WSW11.3 kmh WSW -- 29.87 in1011.5 mb 0.00 in0.0 mm 0.00 in0.0 mm 0.00 in0.0 mm
03:25 AM 19.4°F-7.0°C 13.6°F-10.2°C 78% 5.0 mph WSW8.0 kmh WSW -- 29.86 in1011.2 mb 0.00 in0.0 mm 0.00 in0.0 mm 0.00 in0.0 mm
03:30 AM 19.4°F-7.0°C 13.6°F-10.2°C 78% 9.0 mph WSW14.5 kmh WSW -- 29.87 in1011.5 mb 0.00 in0.0 mm 0.00 in0.0 mm 0.00 in0.0 mm
03:35 AM 19.5°F-6.9°C 13.8°F-10.1°C 78% 7.0 mph WSW11.3 kmh WSW -- 29.86 in1011.2 mb 0.00 in0.0 mm 0.00 in0.0 mm 0.00 in0.0 mm
03:40 AM 19.4°F-7.0°C 13.6°F-10.2°C 78% 7.0 mph WSW11.3 kmh WSW 9.0 mph14.5 kmh 29.86 in1011.2 mb 0.00 in0.0 mm 0.00 in0.0 mm 0.00 in0.0 mm
03:45 AM 19.7°F-6.8°C 14.0°F-10.0°C 78% 5.0 mph WSW8.0 kmh WSW -- 29.86 in1011.2 mb 0.00 in0.0 mm 0.00 in0.0 mm 0.00 in0.0 mm
03:50 AM 20.3°F-6.5°C 14.5°F-9.7°C 78% 5.0 mph SW8.0 kmh SW -- 29.86 in1011.2 mb 0.00 in0.0 mm 0.00 in0.0 mm 0.00 in0.0 mm
03:55 AM 19.3°F-7.1°C 13.3°F-10.4°C 77% 7.0 mph WSW11.3 kmh WSW -- 29.86 in1011.2 mb 0.00 in0.0 mm 0.00 in0.0 mm 0.00 in0.0 mm
04:00 AM 19.7°F-6.8°C 14.4°F-9.8°C 79% 7.0 mph WSW11.3 kmh WSW -- 29.86 in1011.2 mb 0.00 in0.0 mm 0.00 in0.0 mm 0.00 in0.0 mm
04:05 AM 19.5°F-6.9°C 13.8°F-10.1°C 78% 10.0 mph WSW16.1 kmh WSW 9.0 mph14.5 kmh 29.86 in1011.2 mb 0.00 in0.0 mm 0.00 in0.0 mm 0.00 in0.0 mm
04:10 AM 19.7°F-6.8°C 14.0°F-10.0°C 78% 6.0 mph WSW9.7 kmh WSW -- 29.86 in1011.2 mb 0.00 in0.0 mm 0.00 in0.0 mm 0.00 in0.0 mm
04:15 AM 18.9°F-7.3°C 13.1°F-10.5°C 78% 4.0 mph WSW6.4 kmh WSW -- 29.86 in1011.2 mb 0.00 in0.0 mm 0.00 in0.0 mm 0.00 in0.0 mm
04:20 AM 18.8°F-7.3°C 13.1°F-10.5°C 78% 6.0 mph WSW9.7 kmh WSW -- 29.86 in1011.2 mb 0.00 in0.0 mm 0.00 in0.0 mm 0.00 in0.0 mm
04:25 AM 19.4°F-7.0°C 14.0°F-10.0°C 79% 7.0 mph WSW11.3 kmh WSW -- 29.86 in1011.2 mb 0.00 in0.0 mm 0.00 in0.0 mm 0.00 in0.0 mm
04:30 AM 19.5°F-6.9°C 14.2°F-9.9°C 79% 7.0 mph WSW11.3 kmh WSW 9.0 mph14.5 kmh 29.86 in1011.2 mb 0.00 in0.0 mm 0.00 in0.0 mm 0.00 in0.0 mm
04:35 AM 19.1°F-7.2°C 13.6°F-10.2°C 79% 8.0 mph WSW12.9 kmh WSW -- 29.86 in1011.2 mb 0.00 in0.0 mm 0.00 in0.0 mm 0.00 in0.0 mm
04:40 AM 18.8°F-7.3°C 13.5°F-10.3°C 79% 7.0 mph WSW11.3 kmh WSW -- 29.86 in1011.2 mb 0.00 in0.0 mm 0.00 in0.0 mm 0.00 in0.0 mm
04:45 AM 18.8°F-7.3°C 13.5°F-10.3°C 79% 6.0 mph WSW9.7 kmh WSW -- 29.86 in1011.2 mb 0.00 in0.0 mm 0.00 in0.0 mm 0.00 in0.0 mm
04:50 AM 18.7°F-7.4°C 13.3°F-10.4°C 79% 8.0 mph WSW12.9 kmh WSW -- 29.86 in1011.2 mb 0.00 in0.0 mm 0.00 in0.0 mm 0.00 in0.0 mm
04:55 AM 19.1°F-7.2°C 13.8°F-10.1°C 80% 6.0 mph WSW9.7 kmh WSW 10.0 mph16.1 kmh 29.86 in1011.2 mb 0.00 in0.0 mm 0.00 in0.0 mm 0.00 in0.0 mm
05:00 AM 19.1°F-7.2°C 13.6°F-10.2°C 79% 6.0 mph SW9.7 kmh SW -- 29.86 in1011.2 mb 0.00 in0.0 mm 0.00 in0.0 mm 0.00 in0.0 mm
05:05 AM 18.9°F-7.3°C 13.5°F-10.3°C 79% 7.0 mph WSW11.3 kmh WSW -- 29.86 in1011.2 mb 0.00 in0.0 mm 0.00 in0.0 mm 0.00 in0.0 mm
05:10 AM 19.2°F-7.1°C 13.8°F-10.1°C 79% 6.0 mph W9.7 kmh W -- 29.86 in1011.2 mb 0.00 in0.0 mm 0.00 in0.0 mm 0.00 in0.0 mm
05:15 AM 19.1°F-7.2°C 13.6°F-10.2°C 79% 6.0 mph WSW9.7 kmh WSW -- 29.85 in1010.8 mb 0.00 in0.0 mm 0.00 in0.0 mm 0.00 in0.0 mm
05:20 AM 19.1°F-7.2°C 13.6°F-10.2°C 79% 5.0 mph WSW8.0 kmh WSW 8.0 mph12.9 kmh 29.85 in1010.8 mb 0.00 in0.0 mm 0.00 in0.0 mm 0.00 in0.0 mm
05:25 AM 19.3°F-7.1°C 13.8°F-10.1°C 79% 6.0 mph WSW9.7 kmh WSW -- 29.85 in1010.8 mb 0.00 in0.0 mm 0.00 in0.0 mm 0.00 in0.0 mm
05:30 AM 19.2°F-7.1°C 13.8°F-10.1°C 79% 7.0 mph WSW11.3 kmh WSW -- 29.85 in1010.8 mb 0.00 in0.0 mm 0.00 in0.0 mm 0.00 in0.0 mm
05:35 AM 19.9°F-6.7°C 14.7°F-9.6°C 80% 7.0 mph W11.3 kmh W -- 29.85 in1010.8 mb 0.00 in0.0 mm 0.00 in0.0 mm 0.00 in0.0 mm
05:40 AM 20.2°F-6.6°C 14.7°F-9.6°C 79% 6.0 mph WSW9.7 kmh WSW -- 29.85 in1010.8 mb 0.00 in0.0 mm 0.00 in0.0 mm 0.00 in0.0 mm
05:45 AM 20.5°F-6.4°C 15.1°F-9.4°C 79% 7.0 mph WSW11.3 kmh WSW 9.0 mph14.5 kmh 29.85 in1010.8 mb 0.00 in0.0 mm 0.00 in0.0 mm 0.00 in0.0 mm
05:50 AM 19.7°F-6.8°C 14.0°F-10.0°C 78% 7.0 mph WSW11.3 kmh WSW -- 29.85 in1010.8 mb 0.00 in0.0 mm 0.00 in0.0 mm 0.00 in0.0 mm
05:55 AM 19.9°F-6.7°C 14.5°F-9.7°C 79% 6.0 mph WSW9.7 kmh WSW -- 29.85 in1010.8 mb 0.00 in0.0 mm 0.00 in0.0 mm 0.00 in0.0 mm
06:00 AM 20.2°F-6.6°C 14.7°F-9.6°C 79% 3.0 mph WSW4.8 kmh WSW -- 29.84 in1010.5 mb 0.00 in0.0 mm 0.00 in0.0 mm 0.00 in0.0 mm
06:05 AM 19.8°F-6.8°C 14.0°F-10.0°C 78% 5.0 mph WSW8.0 kmh WSW -- 29.84 in1010.5 mb 0.00 in0.0 mm 0.00 in0.0 mm 0.00 in0.0 mm
06:10 AM 19.5°F-6.9°C 14.2°F-9.9°C 79% 6.0 mph WSW9.7 kmh WSW 8.0 mph12.9 kmh 29.84 in1010.5 mb 0.00 in0.0 mm 0.00 in0.0 mm 0.00 in0.0 mm
06:15 AM 19.8°F-6.8°C 14.4°F-9.8°C 79% 8.0 mph WSW12.9 kmh WSW -- 29.84 in1010.5 mb 0.00 in0.0 mm 0.00 in0.0 mm 0.00 in0.0 mm
06:20 AM 19.7°F-6.8°C 14.4°F-9.8°C 79% 5.0 mph WSW8.0 kmh WSW -- 29.84 in1010.5 mb 0.00 in0.0 mm 0.00 in0.0 mm 0.00 in0.0 mm
06:25 AM 19.7°F-6.8°C 14.4°F-9.8°C 79% 1.0 mph WSW1.6 kmh WSW -- 29.84 in1010.5 mb 0.00 in0.0 mm 0.00 in0.0 mm 0.00 in0.0 mm
06:30 AM 18.8°F-7.3°C 13.5°F-10.3°C 79% 5.0 mph WSW8.0 kmh WSW -- 29.84 in1010.5 mb 0.00 in0.0 mm 0.00 in0.0 mm 0.00 in0.0 mm
06:35 AM 19.3°F-7.1°C 14.4°F-9.8°C 81% 6.0 mph WSW9.7 kmh WSW 7.0 mph11.3 kmh 29.84 in1010.5 mb 0.00 in0.0 mm 0.00 in0.0 mm 0.00 in0.0 mm
06:40 AM 18.9°F-7.3°C 13.8°F-10.1°C 80% 6.0 mph WSW9.7 kmh WSW -- 29.84 in1010.5 mb 0.00 in0.0 mm 0.00 in0.0 mm 0.00 in0.0 mm
06:45 AM 18.1°F-7.7°C 13.1°F-10.5°C 80% 7.0 mph WSW11.3 kmh WSW -- 29.84 in1010.5 mb 0.00 in0.0 mm 0.00 in0.0 mm 0.00 in0.0 mm
06:50 AM 18.2°F-7.7°C 13.3°F-10.4°C 81% 4.0 mph WSW6.4 kmh WSW -- 29.84 in1010.5 mb 0.00 in0.0 mm 0.00 in0.0 mm 0.00 in0.0 mm
06:55 AM 17.4°F-8.1°C 12.6°F-10.8°C 81% 7.0 mph WSW11.3 kmh WSW -- 29.84 in1010.5 mb 0.00 in0.0 mm 0.00 in0.0 mm 0.00 in0.0 mm
07:00 AM 18.0°F-7.8°C 13.6°F-10.2°C 83% 7.0 mph WSW11.3 kmh WSW 9.0 mph14.5 kmh 29.84 in1010.5 mb 0.00 in0.0 mm 0.00 in0.0 mm 0.00 in0.0 mm
07:05 AM 18.6°F-7.4°C 14.4°F-9.8°C 83% 5.0 mph SW8.0 kmh SW -- 29.84 in1010.5 mb 0.00 in0.0 mm 0.00 in0.0 mm 0.00 in0.0 mm
07:10 AM 18.4°F-7.6°C 13.8°F-10.1°C 82% 7.0 mph WSW11.3 kmh WSW -- 29.84 in1010.5 mb 0.00 in0.0 mm 0.00 in0.0 mm 0.00 in0.0 mm
07:15 AM 18.2°F-7.7°C 13.8°F-10.1°C 83% 7.0 mph WSW11.3 kmh WSW -- 29.84 in1010.5 mb 0.00 in0.0 mm 0.00 in0.0 mm 0.00 in0.0 mm
07:20 AM 18.6°F-7.4°C 14.4°F-9.8°C 83% 5.0 mph SW8.0 kmh SW -- 29.84 in1010.5 mb 0.00 in0.0 mm 0.00 in0.0 mm 0.00 in0.0 mm
07:25 AM 18.9°F-7.3°C 14.5°F-9.7°C 83% 6.0 mph SW9.7 kmh SW 9.0 mph14.5 kmh 29.84 in1010.5 mb 0.00 in0.0 mm 0.00 in0.0 mm 0.00 in0.0 mm
07:30 AM 19.2°F-7.1°C 14.7°F-9.6°C 82% 7.0 mph SW11.3 kmh SW -- 29.84 in1010.5 mb 0.00 in0.0 mm 0.00 in0.0 mm 0.00 in0.0 mm
07:35 AM 19.6°F-6.9°C 15.3°F-9.3°C 83% 6.0 mph WSW9.7 kmh WSW -- 29.83 in1010.2 mb 0.00 in0.0 mm 0.00 in0.0 mm 0.00 in0.0 mm
07:40 AM 19.9°F-6.7°C 15.1°F-9.4°C 81% 6.0 mph SW9.7 kmh SW -- 29.84 in1010.5 mb 0.00 in0.0 mm 0.00 in0.0 mm 0.00 in0.0 mm
07:45 AM 20.2°F-6.6°C 15.3°F-9.3°C 81% 7.0 mph WSW11.3 kmh WSW -- 29.83 in1010.2 mb 0.00 in0.0 mm 0.00 in0.0 mm 0.00 in0.0 mm
07:50 AM 19.6°F-6.9°C 14.4°F-9.8°C 80% 6.0 mph WSW9.7 kmh WSW 10.0 mph16.1 kmh 29.83 in1010.2 mb 0.00 in0.0 mm 0.00 in0.0 mm 0.00 in0.0 mm
07:55 AM 19.3°F-7.1°C 14.4°F-9.8°C 81% 7.0 mph WSW11.3 kmh WSW -- 29.83 in1010.2 mb 0.00 in0.0 mm 0.00 in0.0 mm 0.00 in0.0 mm
08:00 AM 19.7°F-6.8°C 14.9°F-9.5°C 81% 2.0 mph SW3.2 kmh SW -- 29.83 in1010.2 mb 0.00 in0.0 mm 0.00 in0.0 mm 0.00 in0.0 mm
08:05 AM 19.7°F-6.8°C 14.9°F-9.5°C 81% 6.0 mph SW9.7 kmh SW -- 29.83 in1010.2 mb 0.00 in0.0 mm 0.00 in0.0 mm 0.00 in0.0 mm
08:10 AM 19.9°F-6.7°C 15.3°F-9.3°C 82% 8.0 mph WSW12.9 kmh WSW -- 29.83 in1010.2 mb 0.00 in0.0 mm 0.00 in0.0 mm 0.00 in0.0 mm
08:15 AM 19.8°F-6.8°C 14.5°F-9.7°C 80% 2.0 mph WSW3.2 kmh WSW 9.0 mph14.5 kmh 29.83 in1010.2 mb 0.00 in0.0 mm 0.00 in0.0 mm 0.00 in0.0 mm
08:20 AM 19.4°F-7.0°C 14.5°F-9.7°C 81% 8.0 mph WSW12.9 kmh WSW -- 29.84 in1010.5 mb 0.00 in0.0 mm 0.00 in0.0 mm 0.00 in0.0 mm
08:25 AM 20.1°F-6.6°C 15.3°F-9.3°C 81% 6.0 mph WSW9.7 kmh WSW -- 29.84 in1010.5 mb 0.00 in0.0 mm 0.00 in0.0 mm 0.00 in0.0 mm
08:30 AM 20.2°F-6.6°C 15.3°F-9.3°C 81% 6.0 mph WSW9.7 kmh WSW -- 29.84 in1010.5 mb 0.00 in0.0 mm 0.00 in0.0 mm 0.00 in0.0 mm
08:35 AM 20.3°F-6.5°C 15.1°F-9.4°C 80% Calm Calm -- 29.84 in1010.5 mb 0.00 in0.0 mm 0.00 in0.0 mm 0.00 in0.0 mm
08:40 AM 20.7°F-6.3°C 15.8°F-9.0°C 81% 5.0 mph WSW8.0 kmh WSW 8.0 mph12.9 kmh 29.83 in1010.2 mb 0.00 in0.0 mm 0.00 in0.0 mm 0.00 in0.0 mm
08:45 AM 20.8°F-6.2°C 15.6°F-9.1°C 80% 6.0 mph WSW9.7 kmh WSW -- 29.83 in1010.2 mb 0.00 in0.0 mm 0.00 in0.0 mm 0.00 in0.0 mm
08:50 AM 21.2°F-6.0°C 16.3°F-8.7°C 81% 8.0 mph WSW12.9 kmh WSW -- 29.83 in1010.2 mb 0.00 in0.0 mm 0.00 in0.0 mm 0.00 in0.0 mm
08:55 AM 21.5°F-5.8°C 16.7°F-8.5°C 81% 6.0 mph WSW9.7 kmh WSW -- 29.83 in1010.2 mb 0.00 in0.0 mm 0.00 in0.0 mm 0.00 in0.0 mm
09:00 AM 21.7°F-5.7°C 16.5°F-8.6°C 80% 7.0 mph WSW11.3 kmh WSW -- 29.83 in1010.2 mb 0.00 in0.0 mm 0.00 in0.0 mm 0.00 in0.0 mm
09:05 AM 21.5°F-5.8°C 16.3°F-8.7°C 80% 6.0 mph WSW9.7 kmh WSW 8.0 mph12.9 kmh 29.83 in1010.2 mb 0.00 in0.0 mm 0.00 in0.0 mm 0.00 in0.0 mm
09:10 AM 22.2°F-5.4°C 17.1°F-8.3°C 80% 5.0 mph WSW8.0 kmh WSW -- 29.83 in1010.2 mb 0.00 in0.0 mm 0.00 in0.0 mm 0.00 in0.0 mm
09:15 AM 21.5°F-5.8°C 16.3°F-8.7°C 80% 5.0 mph WSW8.0 kmh WSW -- 29.83 in1010.2 mb 0.00 in0.0 mm 0.00 in0.0 mm 0.00 in0.0 mm
09:20 AM 23.6°F-4.7°C 18.5°F-7.5°C 81% 3.0 mph WSW4.8 kmh WSW -- 29.83 in1010.2 mb 0.00 in0.0 mm 0.00 in0.0 mm 0.00 in0.0 mm
09:25 AM 23.1°F-4.9°C 17.6°F-8.0°C 79% 3.0 mph SW4.8 kmh SW -- 29.83 in1010.2 mb 0.00 in0.0 mm 0.00 in0.0 mm 0.00 in0.0 mm
09:30 AM 22.9°F-5.1°C 17.1°F-8.3°C 78% 7.0 mph WSW11.3 kmh WSW 7.0 mph11.3 kmh 29.83 in1010.2 mb 0.00 in0.0 mm 0.00 in0.0 mm 0.00 in0.0 mm
09:35 AM 22.9°F-5.1°C 17.6°F-8.0°C 80% 4.0 mph WSW6.4 kmh WSW -- 29.83 in1010.2 mb 0.00 in0.0 mm 0.00 in0.0 mm 0.00 in0.0 mm
09:40 AM 22.4°F-5.3°C 16.7°F-8.5°C 78% 3.0 mph SW4.8 kmh SW -- 29.83 in1010.2 mb 0.00 in0.0 mm 0.00 in0.0 mm 0.00 in0.0 mm
09:45 AM 22.5°F-5.3°C 17.2°F-8.2°C 80% 4.0 mph WSW6.4 kmh WSW -- 29.83 in1010.2 mb 0.00 in0.0 mm 0.00 in0.0 mm 0.00 in0.0 mm
09:50 AM 22.6°F-5.2°C 17.4°F-8.1°C 80% 6.0 mph WSW9.7 kmh WSW -- 29.83 in1010.2 mb 0.00 in0.0 mm 0.00 in0.0 mm 0.00 in0.0 mm
09:55 AM 22.2°F-5.4°C 17.1°F-8.3°C 80% 5.0 mph SW8.0 kmh SW 7.0 mph11.3 kmh 29.83 in1010.2 mb 0.00 in0.0 mm 0.00 in0.0 mm 0.00 in0.0 mm
10:00 AM 22.8°F-5.1°C 18.5°F-7.5°C 83% 6.0 mph WSW9.7 kmh WSW -- 29.83 in1010.2 mb 0.00 in0.0 mm 0.00 in0.0 mm 0.00 in0.0 mm
10:05 AM 25.3°F-3.7°C 20.3°F-6.5°C 81% 5.0 mph SW8.0 kmh SW -- 29.83 in1010.2 mb 0.00 in0.0 mm 0.00 in0.0 mm 0.00 in0.0 mm
10:10 AM 26.0°F-3.3°C 20.5°F-6.4°C 79% 4.0 mph WSW6.4 kmh WSW -- 29.83 in1010.2 mb 0.00 in0.0 mm 0.00 in0.0 mm 0.00 in0.0 mm
10:15 AM 25.8°F-3.4°C 19.8°F-6.8°C 77% 5.0 mph WSW8.0 kmh WSW -- 29.83 in1010.2 mb 0.00 in0.0 mm 0.00 in0.0 mm 0.00 in0.0 mm
10:20 AM 24.5°F-4.2°C 18.3°F-7.6°C 77% 8.0 mph WSW12.9 kmh WSW 8.0 mph12.9 kmh 29.83 in1010.2 mb 0.00 in0.0 mm 0.00 in0.0 mm 0.00 in0.0 mm
10:25 AM 23.9°F-4.5°C 18.3°F-7.6°C 79% 6.0 mph WSW9.7 kmh WSW -- 29.83 in1010.2 mb 0.00 in0.0 mm 0.00 in0.0 mm 0.00 in0.0 mm
10:30 AM 22.6°F-5.2°C 17.1°F-8.3°C 79% 9.0 mph WSW14.5 kmh WSW -- 29.83 in1010.2 mb 0.00 in0.0 mm 0.00 in0.0 mm 0.00 in0.0 mm
10:35 AM 22.7°F-5.2°C 18.0°F-7.8°C 82% 5.0 mph SW8.0 kmh SW -- 29.84 in1010.5 mb 0.00 in0.0 mm 0.00 in0.0 mm 0.00 in0.0 mm
10:40 AM 22.9°F-5.1°C 18.0°F-7.8°C 81% 6.0 mph WSW9.7 kmh WSW -- 29.83 in1010.2 mb 0.00 in0.0 mm 0.00 in0.0 mm 0.00 in0.0 mm
10:45 AM 22.1°F-5.5°C 16.9°F-8.4°C 80% 7.0 mph SW11.3 kmh SW 8.0 mph12.9 kmh 29.84 in1010.5 mb 0.00 in0.0 mm 0.00 in0.0 mm 0.00 in0.0 mm
10:50 AM 22.6°F-5.2°C 18.0°F-7.8°C 82% 7.0 mph WSW11.3 kmh WSW -- 29.83 in1010.2 mb 0.00 in0.0 mm 0.00 in0.0 mm 0.00 in0.0 mm
10:55 AM 22.6°F-5.2°C 17.4°F-8.1°C 80% 9.0 mph W14.5 kmh W -- 29.83 in1010.2 mb 0.00 in0.0 mm 0.00 in0.0 mm 0.00 in0.0 mm
11:00 AM 21.7°F-5.7°C 16.5°F-8.6°C 80% 9.0 mph WSW14.5 kmh WSW -- 29.83 in1010.2 mb 0.00 in0.0 mm 0.00 in0.0 mm 0.00 in0.0 mm
11:05 AM 21.5°F-5.8°C 16.7°F-8.5°C 81% 7.0 mph WSW11.3 kmh WSW -- 29.83 in1010.2 mb 0.00 in0.0 mm 0.00 in0.0 mm 0.00 in0.0 mm
11:10 AM 22.1°F-5.5°C 17.4°F-8.1°C 82% 8.0 mph WSW12.9 kmh WSW 10.0 mph16.1 kmh 29.83 in1010.2 mb 0.00 in0.0 mm 0.00 in0.0 mm 0.00 in0.0 mm
11:15 AM 23.2°F-4.9°C 18.3°F-7.6°C 81% 1.0 mph SW1.6 kmh SW -- 29.83 in1010.2 mb 0.00 in0.0 mm 0.00 in0.0 mm 0.00 in0.0 mm
11:20 AM 23.8°F-4.6°C 18.1°F-7.7°C 79% Calm Calm -- 29.83 in1010.2 mb 0.00 in0.0 mm 0.00 in0.0 mm 0.00 in0.0 mm
11:25 AM 23.8°F-4.6°C 18.1°F-7.7°C 79% 4.0 mph WSW6.4 kmh WSW -- 29.84 in1010.5 mb 0.00 in0.0 mm 0.00 in0.0 mm 0.00 in0.0 mm
11:30 AM 25.5°F-3.6°C 20.3°F-6.5°C 80% 3.0 mph SW4.8 kmh SW -- 29.83 in1010.2 mb 0.00 in0.0 mm 0.00 in0.0 mm 0.00 in0.0 mm
11:35 AM 26.5°F-3.1°C 20.1°F-6.6°C 77% 4.0 mph SW6.4 kmh SW 7.0 mph11.3 kmh 29.83 in1010.2 mb 0.00 in0.0 mm 0.00 in0.0 mm 0.00 in0.0 mm
11:40 AM 26.3°F-3.2°C 19.8°F-6.8°C 76% 4.0 mph WSW6.4 kmh WSW -- 29.83 in1010.2 mb 0.00 in0.0 mm 0.00 in0.0 mm 0.00 in0.0 mm
11:45 AM 26.3°F-3.2°C 19.8°F-6.8°C 76% 4.0 mph SW6.4 kmh SW -- 29.83 in1010.2 mb 0.00 in0.0 mm 0.00 in0.0 mm 0.00 in0.0 mm
11:50 AM 25.9°F-3.4°C 19.4°F-7.0°C 76% 3.0 mph SW4.8 kmh SW -- 29.83 in1010.2 mb 0.00 in0.0 mm 0.00 in0.0 mm 0.00 in0.0 mm
11:55 AM 26.0°F-3.3°C 19.6°F-6.9°C 76% 1.0 mph SW1.6 kmh SW -- 29.83 in1010.2 mb 0.00 in0.0 mm 0.00 in0.0 mm 0.00 in0.0 mm
12:00 PM 26.2°F-3.2°C 19.8°F-6.8°C 76% 1.0 mph SSW1.6 kmh SSW 5.0 mph8.0 kmh 29.82 in1009.8 mb 0.00 in0.0 mm 0.00 in0.0 mm 0.00 in0.0 mm
12:05 PM 25.9°F-3.4°C 19.0°F-7.2°C 75% 2.0 mph SW3.2 kmh SW -- 29.83 in1010.2 mb 0.00 in0.0 mm 0.00 in0.0 mm 0.00 in0.0 mm
12:10 PM 25.8°F-3.4°C 19.4°F-7.0°C 76% 3.0 mph WSW4.8 kmh WSW -- 29.82 in1009.8 mb 0.00 in0.0 mm 0.00 in0.0 mm 0.00 in0.0 mm
12:15 PM 26.0°F-3.3°C 19.6°F-6.9°C 76% 3.0 mph WSW4.8 kmh WSW -- 29.82 in1009.8 mb 0.00 in0.0 mm 0.00 in0.0 mm 0.00 in0.0 mm
12:20 PM 26.5°F-3.1°C 19.9°F-6.7°C 76% 1.0 mph WSW1.6 kmh WSW -- 29.82 in1009.8 mb 0.00 in0.0 mm 0.00 in0.0 mm 0.00 in0.0 mm
12:25 PM 26.6°F-3.0°C 20.1°F-6.6°C 76% 3.0 mph SW4.8 kmh SW 6.0 mph9.7 kmh 29.82 in1009.8 mb 0.00 in0.0 mm 0.00 in0.0 mm 0.00 in0.0 mm
12:30 PM 26.7°F-2.9°C 19.9°F-6.7°C 75% 4.0 mph WSW6.4 kmh WSW -- 29.82 in1009.8 mb 0.00 in0.0 mm 0.00 in0.0 mm 0.00 in0.0 mm
12:35 PM 26.4°F-3.1°C 19.9°F-6.7°C 76% 2.0 mph SW3.2 kmh SW -- 29.82 in1009.8 mb 0.00 in0.0 mm 0.00 in0.0 mm 0.00 in0.0 mm
12:40 PM 27.2°F-2.7°C 20.7°F-6.3°C 76% 4.0 mph SW6.4 kmh SW -- 29.82 in1009.8 mb 0.00 in0.0 mm 0.00 in0.0 mm 0.00 in0.0 mm
12:45 PM 28.3°F-2.1°C 21.0°F-6.1°C 74% 3.0 mph SSW4.8 kmh SSW -- 29.82 in1009.8 mb 0.00 in0.0 mm 0.00 in0.0 mm 0.00 in0.0 mm
12:50 PM 29.0°F-1.7°C 21.0°F-6.1°C 72% 4.0 mph WSW6.4 kmh WSW 7.0 mph11.3 kmh 29.82 in1009.8 mb 0.00 in0.0 mm 0.00 in0.0 mm 0.00 in0.0 mm
12:55 PM 29.5°F-1.4°C 21.2°F-6.0°C 71% 2.0 mph WSW3.2 kmh WSW -- 29.82 in1009.8 mb 0.00 in0.0 mm 0.00 in0.0 mm 0.00 in0.0 mm
01:00 PM 29.6°F-1.3°C 21.4°F-5.9°C 71% 3.0 mph SW4.8 kmh SW -- 29.81 in1009.5 mb 0.00 in0.0 mm 0.00 in0.0 mm 0.00 in0.0 mm
01:05 PM 29.7°F-1.3°C 21.7°F-5.7°C 72% 4.0 mph SW6.4 kmh SW -- 29.81 in1009.5 mb 0.00 in0.0 mm 0.00 in0.0 mm 0.00 in0.0 mm
01:10 PM 29.7°F-1.3°C 21.7°F-5.7°C 72% 2.0 mph SW3.2 kmh SW -- 29.81 in1009.5 mb 0.00 in0.0 mm 0.00 in0.0 mm 0.00 in0.0 mm
01:15 PM 29.6°F-1.3°C 21.7°F-5.7°C 72% 4.0 mph WSW6.4 kmh WSW 5.0 mph8.0 kmh 29.81 in1009.5 mb 0.00 in0.0 mm 0.00 in0.0 mm 0.00 in0.0 mm
01:20 PM 29.3°F-1.5°C 21.4°F-5.9°C 72% 3.0 mph WSW4.8 kmh WSW -- 29.81 in1009.5 mb 0.00 in0.0 mm 0.00 in0.0 mm 0.00 in0.0 mm
01:25 PM 29.4°F-1.4°C 21.6°F-5.8°C 72% 2.0 mph WSW3.2 kmh WSW -- 29.81 in1009.5 mb 0.00 in0.0 mm 0.00 in0.0 mm 0.00 in0.0 mm
01:30 PM 29.4°F-1.4°C 21.6°F-5.8°C 72% 3.0 mph SW4.8 kmh SW -- 29.81 in1009.5 mb 0.00 in0.0 mm 0.00 in0.0 mm 0.00 in0.0 mm
01:35 PM 29.3°F-1.5°C 21.7°F-5.7°C 73% Calm Calm -- 29.81 in1009.5 mb 0.00 in0.0 mm 0.00 in0.0 mm 0.00 in0.0 mm
01:40 PM 29.0°F-1.7°C 21.4°F-5.9°C 73% 1.0 mph SW1.6 kmh SW 3.0 mph4.8 kmh 29.80 in1009.1 mb 0.00 in0.0 mm 0.00 in0.0 mm 0.00 in0.0 mm
01:45 PM 28.6°F-1.9°C 21.0°F-6.1°C 73% 4.0 mph WSW6.4 kmh WSW -- 29.80 in1009.1 mb 0.00 in0.0 mm 0.00 in0.0 mm 0.00 in0.0 mm
01:50 PM 27.9°F-2.3°C 20.7°F-6.3°C 74% 3.0 mph SW4.8 kmh SW -- 29.80 in1009.1 mb 0.00 in0.0 mm 0.00 in0.0 mm 0.00 in0.0 mm
01:55 PM 27.5°F-2.5°C 20.7°F-6.3°C 75% 4.0 mph WSW6.4 kmh WSW -- 29.80 in1009.1 mb 0.00 in0.0 mm 0.00 in0.0 mm 0.00 in0.0 mm
02:00 PM 28.3°F-2.1°C 21.4°F-5.9°C 75% 2.0 mph SW3.2 kmh SW -- 29.80 in1009.1 mb 0.00 in0.0 mm 0.00 in0.0 mm 0.00 in0.0 mm
02:05 PM 29.2°F-1.6°C 21.9°F-5.6°C 74% 4.0 mph SW6.4 kmh SW 7.0 mph11.3 kmh 29.80 in1009.1 mb 0.00 in0.0 mm 0.00 in0.0 mm 0.00 in0.0 mm
02:10 PM 30.4°F-0.9°C 23.2°F-4.9°C 74% 2.0 mph S3.2 kmh S -- 29.79 in1008.8 mb 0.00 in0.0 mm 0.00 in0.0 mm 0.00 in0.0 mm
02:15 PM 30.5°F-0.8°C 22.6°F-5.2°C 72% 1.0 mph WSW1.6 kmh WSW -- 29.79 in1008.8 mb 0.00 in0.0 mm 0.00 in0.0 mm 0.00 in0.0 mm
02:20 PM 30.5°F-0.8°C 22.6°F-5.2°C 72% 2.0 mph N3.2 kmh N -- 29.79 in1008.8 mb 0.00 in0.0 mm 0.00 in0.0 mm 0.00 in0.0 mm
02:25 PM 31.0°F-0.6°C 23.0°F-5.0°C 72% Calm Calm -- 29.79 in1008.8 mb 0.00 in0.0 mm 0.00 in0.0 mm 0.00 in0.0 mm
02:30 PM 30.5°F-0.8°C 22.3°F-5.4°C 71% 5.0 mph WSW8.0 kmh WSW 6.0 mph9.7 kmh 29.79 in1008.8 mb 0.00 in0.0 mm 0.00 in0.0 mm 0.00 in0.0 mm
02:35 PM 30.8°F-0.7°C 22.5°F-5.3°C 71% 2.0 mph S3.2 kmh S -- 29.79 in1008.8 mb 0.00 in0.0 mm 0.00 in0.0 mm 0.00 in0.0 mm
02:40 PM 30.4°F-0.9°C 22.1°F-5.5°C 71% 3.0 mph SW4.8 kmh SW -- 29.79 in1008.8 mb 0.00 in0.0 mm 0.00 in0.0 mm 0.00 in0.0 mm
02:45 PM 30.2°F-1.0°C 21.9°F-5.6°C 71% 4.0 mph SW6.4 kmh SW -- 29.79 in1008.8 mb 0.00 in0.0 mm 0.00 in0.0 mm 0.00 in0.0 mm
02:50 PM 29.1°F-1.6°C 20.8°F-6.2°C 71% 5.0 mph SW8.0 kmh SW -- 29.79 in1008.8 mb 0.00 in0.0 mm 0.00 in0.0 mm 0.00 in0.0 mm
02:55 PM 29.4°F-1.4°C 21.9°F-5.6°C 73% 1.0 mph SW1.6 kmh SW 8.0 mph12.9 kmh 29.79 in1008.8 mb 0.00 in0.0 mm 0.00 in0.0 mm 0.00 in0.0 mm
03:00 PM 29.0°F-1.7°C 21.4°F-5.9°C 73% 4.0 mph WSW6.4 kmh WSW -- 29.79 in1008.8 mb 0.00 in0.0 mm 0.00 in0.0 mm 0.00 in0.0 mm
03:05 PM 28.1°F-2.2°C 20.1°F-6.6°C 72% 3.0 mph WSW4.8 kmh WSW -- 29.78 in1008.5 mb 0.00 in0.0 mm 0.00 in0.0 mm 0.00 in0.0 mm
03:10 PM 27.8°F-2.3°C 20.7°F-6.3°C 74% 2.0 mph SW3.2 kmh SW -- 29.78 in1008.5 mb 0.00 in0.0 mm 0.00 in0.0 mm 0.00 in0.0 mm
03:15 PM 27.8°F-2.3°C 20.7°F-6.3°C 74% 4.0 mph SW6.4 kmh SW -- 29.78 in1008.5 mb 0.00 in0.0 mm 0.00 in0.0 mm 0.00 in0.0 mm
03:20 PM 26.4°F-3.1°C 19.6°F-6.9°C 75% 4.0 mph SW6.4 kmh SW 7.0 mph11.3 kmh 29.78 in1008.5 mb 0.00 in0.0 mm 0.00 in0.0 mm 0.00 in0.0 mm
03:25 PM 26.4°F-3.1°C 20.5°F-6.4°C 78% 3.0 mph WSW4.8 kmh WSW -- 29.78 in1008.5 mb 0.00 in0.0 mm 0.00 in0.0 mm 0.00 in0.0 mm
03:30 PM 26.4°F-3.1°C 20.1°F-6.6°C 77% 4.0 mph SW6.4 kmh SW -- 29.78 in1008.5 mb 0.00 in0.0 mm 0.00 in0.0 mm 0.00 in0.0 mm
03:35 PM 26.8°F-2.9°C 21.2°F-6.0°C 79% 1.0 mph SSW1.6 kmh SSW -- 29.78 in1008.5 mb 0.00 in0.0 mm 0.00 in0.0 mm 0.00 in0.0 mm
03:40 PM 27.0°F-2.8°C 21.0°F-6.1°C 78% 4.0 mph SW6.4 kmh SW -- 29.78 in1008.5 mb 0.00 in0.0 mm 0.00 in0.0 mm 0.00 in0.0 mm
03:45 PM 28.6°F-1.9°C 22.6°F-5.2°C 78% 2.0 mph SW3.2 kmh SW 7.0 mph11.3 kmh 29.78 in1008.5 mb 0.00 in0.0 mm 0.00 in0.0 mm 0.00 in0.0 mm
03:50 PM 29.4°F-1.4°C 22.8°F-5.1°C 76% 1.0 mph S1.6 kmh S -- 29.78 in1008.5 mb 0.00 in0.0 mm 0.00 in0.0 mm 0.00 in0.0 mm
03:55 PM 30.4°F-0.9°C 23.4°F-4.8°C 75% 1.0 mph SW1.6 kmh SW -- 29.78 in1008.5 mb 0.00 in0.0 mm 0.00 in0.0 mm 0.00 in0.0 mm
04:00 PM 30.8°F-0.7°C 23.2°F-4.9°C 73% 2.0 mph N3.2 kmh N -- 29.78 in1008.5 mb 0.00 in0.0 mm 0.00 in0.0 mm 0.00 in0.0 mm
04:05 PM 31.2°F-0.4°C 23.9°F-4.5°C 74% Calm Calm -- 29.78 in1008.5 mb 0.00 in0.0 mm 0.00 in0.0 mm 0.00 in0.0 mm
04:10 PM 31.2°F-0.4°C 24.3°F-4.3°C 75% Calm Calm 7.0 mph11.3 kmh 29.78 in1008.5 mb 0.00 in0.0 mm 0.00 in0.0 mm 0.00 in0.0 mm
04:15 PM 31.0°F-0.6°C 24.3°F-4.3°C 76% 1.0 mph W1.6 kmh W -- 29.78 in1008.5 mb 0.00 in0.0 mm 0.00 in0.0 mm 0.00 in0.0 mm
04:20 PM 30.8°F-0.7°C 24.1°F-4.4°C 76% Calm Calm -- 29.78 in1008.5 mb 0.00 in0.0 mm 0.00 in0.0 mm 0.00 in0.0 mm
04:25 PM 30.7°F-0.7°C 24.6°F-4.1°C 78% Calm Calm -- 29.78 in1008.5 mb 0.00 in0.0 mm 0.00 in0.0 mm 0.00 in0.0 mm
04:30 PM 30.5°F-0.8°C 24.6°F-4.1°C 78% 1.0 mph NE1.6 kmh NE -- 29.78 in1008.5 mb 0.00 in0.0 mm 0.00 in0.0 mm 0.00 in0.0 mm
04:35 PM 30.5°F-0.8°C 25.2°F-3.8°C 80% 2.0 mph ESE3.2 kmh ESE 8.0 mph12.9 kmh 29.78 in1008.5 mb 0.00 in0.0 mm 0.00 in0.0 mm 0.00 in0.0 mm
04:40 PM 30.3°F-0.9°C 25.9°F-3.4°C 83% 4.0 mph E6.4 kmh E -- 29.77 in1008.1 mb 0.00 in0.0 mm 0.00 in0.0 mm 0.00 in0.0 mm
04:45 PM 30.1°F-1.1°C 26.1°F-3.3°C 85% 4.0 mph N6.4 kmh N -- 29.77 in1008.1 mb 0.00 in0.0 mm 0.00 in0.0 mm 0.00 in0.0 mm
04:50 PM 30.1°F-1.1°C 26.6°F-3.0°C 87% 6.0 mph ESE9.7 kmh ESE -- 29.77 in1008.1 mb 0.00 in0.0 mm 0.00 in0.0 mm 0.00 in0.0 mm
04:55 PM 30.1°F-1.1°C 26.6°F-3.0°C 87% 5.0 mph NNE8.0 kmh NNE -- 29.77 in1008.1 mb 0.00 in0.0 mm 0.00 in0.0 mm 0.00 in0.0 mm
05:00 PM 30.2°F-1.0°C 27.1°F-2.7°C 88% 4.0 mph NE6.4 kmh NE 14.0 mph22.5 kmh 29.77 in1008.1 mb 0.00 in0.0 mm 0.00 in0.0 mm 0.00 in0.0 mm
05:05 PM 30.1°F-1.1°C 27.0°F-2.8°C 88% 1.0 mph NE1.6 kmh NE -- 29.77 in1008.1 mb 0.00 in0.0 mm 0.00 in0.0 mm 0.00 in0.0 mm
05:10 PM 30.0°F-1.1°C 27.0°F-2.8°C 88% 4.0 mph SW6.4 kmh SW -- 29.77 in1008.1 mb 0.00 in0.0 mm 0.00 in0.0 mm 0.00 in0.0 mm
05:15 PM 29.9°F-1.2°C 26.8°F-2.9°C 88% 2.0 mph SW3.2 kmh SW -- 29.77 in1008.1 mb 0.00 in0.0 mm 0.00 in0.0 mm 0.00 in0.0 mm
05:20 PM 29.7°F-1.3°C 26.8°F-2.9°C 89% 2.0 mph SE3.2 kmh SE -- 29.76 in1007.8 mb 0.00 in0.0 mm 0.00 in0.0 mm 0.00 in0.0 mm
05:25 PM 29.7°F-1.3°C 26.8°F-2.9°C 89% Calm Calm 4.0 mph6.4 kmh 29.77 in1008.1 mb 0.00 in0.0 mm 0.00 in0.0 mm 0.00 in0.0 mm
05:30 PM 29.6°F-1.3°C 26.8°F-2.9°C 89% Calm Calm -- 29.76 in1007.8 mb 0.00 in0.0 mm 0.00 in0.0 mm 0.00 in0.0 mm
05:35 PM 29.6°F-1.3°C 27.1°F-2.7°C 90% Calm Calm -- 29.76 in1007.8 mb 0.00 in0.0 mm 0.00 in0.0 mm 0.00 in0.0 mm
05:40 PM 29.6°F-1.3°C 27.1°F-2.7°C 90% 1.0 mph SW1.6 kmh SW -- 29.76 in1007.8 mb 0.00 in0.0 mm 0.00 in0.0 mm 0.00 in0.0 mm
05:45 PM 29.6°F-1.3°C 27.1°F-2.7°C 90% 3.0 mph SW4.8 kmh SW -- 29.76 in1007.8 mb 0.00 in0.0 mm 0.00 in0.0 mm 0.00 in0.0 mm
05:50 PM 29.6°F-1.3°C 27.1°F-2.7°C 90% 2.0 mph SW3.2 kmh SW 5.0 mph8.0 kmh 29.76 in1007.8 mb 0.00 in0.0 mm 0.00 in0.0 mm 0.00 in0.0 mm
05:55 PM 29.7°F-1.3°C 27.1°F-2.7°C 90% 2.0 mph W3.2 kmh W -- 29.76 in1007.8 mb 0.00 in0.0 mm 0.00 in0.0 mm 0.00 in0.0 mm
06:00 PM 29.9°F-1.2°C 27.3°F-2.6°C 90% 2.0 mph SW3.2 kmh SW -- 29.76 in1007.8 mb 0.00 in0.0 mm 0.00 in0.0 mm 0.00 in0.0 mm
06:05 PM 30.0°F-1.1°C 27.5°F-2.5°C 90% 3.0 mph SW4.8 kmh SW -- 29.75 in1007.5 mb 0.00 in0.0 mm 0.00 in0.0 mm 0.00 in0.0 mm
06:10 PM 30.1°F-1.1°C 27.5°F-2.5°C 90% Calm Calm -- 29.75 in1007.5 mb 0.00 in0.0 mm 0.00 in0.0 mm 0.00 in0.0 mm
06:15 PM 30.3°F-0.9°C 27.9°F-2.3°C 90% Calm Calm 6.0 mph9.7 kmh 29.75 in1007.5 mb 0.00 in0.0 mm 0.00 in0.0 mm 0.00 in0.0 mm
06:20 PM 30.3°F-0.9°C 27.9°F-2.3°C 90% 2.0 mph SW3.2 kmh SW -- 29.75 in1007.5 mb 0.00 in0.0 mm 0.00 in0.0 mm 0.00 in0.0 mm
06:25 PM 30.5°F-0.8°C 28.0°F-2.2°C 90% 2.0 mph SW3.2 kmh SW -- 29.75 in1007.5 mb 0.00 in0.0 mm 0.00 in0.0 mm 0.00 in0.0 mm
06:30 PM 30.5°F-0.8°C 28.0°F-2.2°C 90% 1.0 mph NW1.6 kmh NW -- 29.75 in1007.5 mb 0.00 in0.0 mm 0.00 in0.0 mm 0.00 in0.0 mm
06:35 PM 30.6°F-0.8°C 27.7°F-2.4°C 89% 2.0 mph W3.2 kmh W -- 29.75 in1007.5 mb 0.00 in0.0 mm 0.00 in0.0 mm 0.00 in0.0 mm
06:40 PM 30.6°F-0.8°C 27.7°F-2.4°C 89% Calm Calm 7.0 mph11.3 kmh 29.75 in1007.5 mb 0.00 in0.0 mm 0.00 in0.0 mm 0.00 in0.0 mm
06:45 PM 30.7°F-0.7°C 27.9°F-2.3°C 89% 2.0 mph SW3.2 kmh SW -- 29.75 in1007.5 mb 0.00 in0.0 mm 0.00 in0.0 mm 0.00 in0.0 mm
06:50 PM 30.9°F-0.6°C 28.0°F-2.2°C 89% 2.0 mph WSW3.2 kmh WSW -- 29.74 in1007.1 mb 0.00 in0.0 mm 0.00 in0.0 mm 0.00 in0.0 mm
06:55 PM 30.8°F-0.7°C 27.7°F-2.4°C 88% 3.0 mph W4.8 kmh W -- 29.75 in1007.5 mb 0.00 in0.0 mm 0.00 in0.0 mm 0.00 in0.0 mm
07:00 PM 31.0°F-0.6°C 27.9°F-2.3°C 88% 3.0 mph WSW4.8 kmh WSW -- 29.74 in1007.1 mb 0.00 in0.0 mm 0.00 in0.0 mm 0.00 in0.0 mm
07:05 PM 31.5°F-0.3°C 28.4°F-2.0°C 88% 2.0 mph NW3.2 kmh NW 7.0 mph11.3 kmh 29.74 in1007.1 mb 0.00 in0.0 mm 0.00 in0.0 mm 0.00 in0.0 mm
07:10 PM 31.7°F-0.2°C 27.9°F-2.3°C 86% 2.0 mph E3.2 kmh E -- 29.74 in1007.1 mb 0.00 in0.0 mm 0.00 in0.0 mm 0.00 in0.0 mm
07:15 PM 31.9°F-0.1°C 27.9°F-2.3°C 85% 5.0 mph NE8.0 kmh NE -- 29.74 in1007.1 mb 0.00 in0.0 mm 0.00 in0.0 mm 0.00 in0.0 mm
07:20 PM 32.4°F0.2°C 28.0°F-2.2°C 84% 6.0 mph SE9.7 kmh SE -- 29.74 in1007.1 mb 0.00 in0.0 mm 0.00 in0.0 mm 0.00 in0.0 mm
07:25 PM 32.3°F0.2°C 27.9°F-2.3°C 83% 3.0 mph WSW4.8 kmh WSW -- 29.74 in1007.1 mb 0.00 in0.0 mm 0.00 in0.0 mm 0.00 in0.0 mm
07:30 PM 32.4°F0.2°C 27.9°F-2.3°C 83% Calm Calm 7.0 mph11.3 kmh 29.74 in1007.1 mb 0.00 in0.0 mm 0.00 in0.0 mm 0.00 in0.0 mm
07:35 PM 31.9°F-0.1°C 27.0°F-2.8°C 82% 3.0 mph SW4.8 kmh SW -- 29.74 in1007.1 mb 0.00 in0.0 mm 0.00 in0.0 mm 0.00 in0.0 mm
07:40 PM 31.9°F-0.1°C 27.3°F-2.6°C 83% 3.0 mph S4.8 kmh S -- 29.74 in1007.1 mb 0.00 in0.0 mm 0.00 in0.0 mm 0.00 in0.0 mm
07:45 PM 32.1°F0.1°C 27.3°F-2.6°C 82% 2.0 mph S3.2 kmh S -- 29.73 in1006.8 mb 0.00 in0.0 mm 0.00 in0.0 mm 0.00 in0.0 mm
07:50 PM 30.9°F-0.6°C 26.1°F-3.3°C 82% 2.0 mph SSW3.2 kmh SSW -- 29.74 in1007.1 mb 0.00 in0.0 mm 0.00 in0.0 mm 0.00 in0.0 mm
07:55 PM 30.0°F-1.1°C 25.5°F-3.6°C 83% 3.0 mph SW4.8 kmh SW 5.0 mph8.0 kmh 29.73 in1006.8 mb 0.00 in0.0 mm 0.00 in0.0 mm 0.00 in0.0 mm
08:00 PM 29.4°F-1.4°C 25.3°F-3.7°C 84% 1.0 mph SW1.6 kmh SW -- 29.73 in1006.8 mb 0.00 in0.0 mm 0.00 in0.0 mm 0.00 in0.0 mm
08:05 PM 29.1°F-1.6°C 25.2°F-3.8°C 85% Calm Calm -- 29.73 in1006.8 mb 0.00 in0.0 mm 0.00 in0.0 mm 0.00 in0.0 mm
08:10 PM 29.8°F-1.2°C 26.2°F-3.2°C 86% 2.0 mph WSW3.2 kmh WSW -- 29.73 in1006.8 mb 0.00 in0.0 mm 0.00 in0.0 mm 0.00 in0.0 mm
08:15 PM 30.8°F-0.7°C 26.2°F-3.2°C 83% 2.0 mph WSW3.2 kmh WSW -- 29.73 in1006.8 mb 0.00 in0.0 mm 0.00 in0.0 mm 0.00 in0.0 mm
08:20 PM 31.0°F-0.6°C 25.7°F-3.5°C 81% 2.0 mph WSW3.2 kmh WSW 4.0 mph6.4 kmh 29.73 in1006.8 mb 0.00 in0.0 mm 0.00 in0.0 mm 0.00 in0.0 mm
08:25 PM 30.5°F-0.8°C 25.5°F-3.6°C 81% 2.0 mph SW3.2 kmh SW -- 29.72 in1006.4 mb 0.00 in0.0 mm 0.00 in0.0 mm 0.00 in0.0 mm
08:30 PM 29.6°F-1.3°C 24.8°F-4.0°C 82% 6.0 mph WSW9.7 kmh WSW -- 29.73 in1006.8 mb 0.00 in0.0 mm 0.00 in0.0 mm 0.00 in0.0 mm
08:35 PM 29.1°F-1.6°C 24.6°F-4.1°C 83% 6.0 mph WSW9.7 kmh WSW -- 29.73 in1006.8 mb 0.00 in0.0 mm 0.00 in0.0 mm 0.00 in0.0 mm
08:40 PM 28.9°F-1.7°C 25.0°F-3.9°C 85% 5.0 mph WSW8.0 kmh WSW -- 29.73 in1006.8 mb 0.00 in0.0 mm 0.00 in0.0 mm 0.00 in0.0 mm
08:45 PM 28.6°F-1.9°C 24.4°F-4.2°C 84% 4.0 mph WSW6.4 kmh WSW 7.0 mph11.3 kmh 29.72 in1006.4 mb 0.00 in0.0 mm 0.00 in0.0 mm 0.00 in0.0 mm
08:50 PM 29.1°F-1.6°C 25.2°F-3.8°C 85% Calm Calm -- 29.72 in1006.4 mb 0.00 in0.0 mm 0.00 in0.0 mm 0.00 in0.0 mm
08:55 PM 30.3°F-0.9°C 25.5°F-3.6°C 82% Calm Calm -- 29.73 in1006.8 mb 0.00 in0.0 mm 0.00 in0.0 mm 0.00 in0.0 mm
09:00 PM 31.3°F-0.4°C 25.9°F-3.4°C 80% 1.0 mph S1.6 kmh S -- 29.72 in1006.4 mb 0.00 in0.0 mm 0.00 in0.0 mm 0.00 in0.0 mm
09:05 PM 32.0°F0.0°C 25.9°F-3.4°C 78% 5.0 mph WSW8.0 kmh WSW -- 29.72 in1006.4 mb 0.00 in0.0 mm 0.00 in0.0 mm 0.00 in0.0 mm
09:10 PM 32.6°F0.3°C 25.9°F-3.4°C 76% 4.0 mph SW6.4 kmh SW 10.0 mph16.1 kmh 29.72 in1006.4 mb 0.00 in0.0 mm 0.00 in0.0 mm 0.00 in0.0 mm
09:15 PM 32.8°F0.4°C 26.1°F-3.3°C 76% 3.0 mph SW4.8 kmh SW -- 29.72 in1006.4 mb 0.00 in0.0 mm 0.00 in0.0 mm 0.00 in0.0 mm
09:20 PM 32.7°F0.4°C 25.7°F-3.5°C 75% 2.0 mph WSW3.2 kmh WSW -- 29.71 in1006.1 mb 0.00 in0.0 mm 0.00 in0.0 mm 0.00 in0.0 mm
09:25 PM 32.9°F0.5°C 25.9°F-3.4°C 75% 4.0 mph W6.4 kmh W -- 29.71 in1006.1 mb 0.00 in0.0 mm 0.00 in0.0 mm 0.00 in0.0 mm
09:30 PM 33.2°F0.7°C 26.2°F-3.2°C 75% 1.0 mph W1.6 kmh W -- 29.71 in1006.1 mb 0.00 in0.0 mm 0.00 in0.0 mm 0.00 in0.0 mm
09:35 PM 33.4°F0.8°C 26.1°F-3.3°C 74% 2.0 mph SW3.2 kmh SW 6.0 mph9.7 kmh 29.71 in1006.1 mb 0.00 in0.0 mm 0.00 in0.0 mm 0.00 in0.0 mm
09:40 PM 33.5°F0.8°C 25.7°F-3.5°C 73% 2.0 mph SSW3.2 kmh SSW -- 29.71 in1006.1 mb 0.00 in0.0 mm 0.00 in0.0 mm 0.00 in0.0 mm
09:45 PM 33.6°F0.9°C 25.5°F-3.6°C 72% 2.0 mph SSW3.2 kmh SSW -- 29.71 in1006.1 mb 0.00 in0.0 mm 0.00 in0.0 mm 0.00 in0.0 mm
09:50 PM 33.6°F0.9°C 25.5°F-3.6°C 72% 2.0 mph SW3.2 kmh SW -- 29.70 in1005.8 mb 0.00 in0.0 mm 0.00 in0.0 mm 0.00 in0.0 mm
09:55 PM 33.7°F0.9°C 25.5°F-3.6°C 72% 3.0 mph SW4.8 kmh SW -- 29.70 in1005.8 mb 0.00 in0.0 mm 0.00 in0.0 mm 0.00 in0.0 mm
10:00 PM 33.1°F0.6°C 25.0°F-3.9°C 72% 3.0 mph WSW4.8 kmh WSW 6.0 mph9.7 kmh 29.70 in1005.8 mb 0.00 in0.0 mm 0.00 in0.0 mm 0.00 in0.0 mm
10:05 PM 32.6°F0.3°C 24.8°F-4.0°C 73% 4.0 mph SW6.4 kmh SW -- 29.70 in1005.8 mb 0.00 in0.0 mm 0.00 in0.0 mm 0.00 in0.0 mm
10:10 PM 32.7°F0.4°C 25.0°F-3.9°C 73% 2.0 mph S3.2 kmh S -- 29.70 in1005.8 mb 0.00 in0.0 mm 0.00 in0.0 mm 0.00 in0.0 mm
10:15 PM 33.4°F0.8°C 25.3°F-3.7°C 72% 1.0 mph SW1.6 kmh SW -- 29.70 in1005.8 mb 0.00 in0.0 mm 0.00 in0.0 mm 0.00 in0.0 mm
10:20 PM 33.5°F0.8°C 25.3°F-3.7°C 72% 2.0 mph SW3.2 kmh SW -- 29.70 in1005.8 mb 0.00 in0.0 mm 0.00 in0.0 mm 0.00 in0.0 mm
10:25 PM 33.8°F1.0°C 25.7°F-3.5°C 72% 2.0 mph SW3.2 kmh SW 6.0 mph9.7 kmh 29.69 in1005.4 mb 0.00 in0.0 mm 0.00 in0.0 mm 0.00 in0.0 mm
10:30 PM 34.1°F1.2°C 26.1°F-3.3°C 72% 1.0 mph SW1.6 kmh SW -- 29.70 in1005.8 mb 0.00 in0.0 mm 0.00 in0.0 mm 0.00 in0.0 mm
10:35 PM 34.2°F1.2°C 25.7°F-3.5°C 71% 3.0 mph SW4.8 kmh SW -- 29.70 in1005.8 mb 0.00 in0.0 mm 0.00 in0.0 mm 0.00 in0.0 mm
10:40 PM 33.8°F1.0°C 25.7°F-3.5°C 72% 3.0 mph SW4.8 kmh SW -- 29.69 in1005.4 mb 0.00 in0.0 mm 0.00 in0.0 mm 0.00 in0.0 mm
10:45 PM 33.5°F0.8°C 25.7°F-3.5°C 73% 3.0 mph SW4.8 kmh SW -- 29.70 in1005.8 mb 0.00 in0.0 mm 0.00 in0.0 mm 0.00 in0.0 mm
10:50 PM 33.1°F0.6°C 25.3°F-3.7°C 73% 4.0 mph SW6.4 kmh SW 7.0 mph11.3 kmh 29.70 in1005.8 mb 0.00 in0.0 mm 0.00 in0.0 mm 0.00 in0.0 mm
10:55 PM 33.1°F0.6°C 25.3°F-3.7°C 73% 3.0 mph SW4.8 kmh SW -- 29.70 in1005.8 mb 0.00 in0.0 mm 0.00 in0.0 mm 0.00 in0.0 mm
11:00 PM 32.4°F0.2°C 25.0°F-3.9°C 74% 3.0 mph SW4.8 kmh SW -- 29.69 in1005.4 mb 0.00 in0.0 mm 0.00 in0.0 mm 0.00 in0.0 mm
11:05 PM 33.4°F0.8°C 25.7°F-3.5°C 73% 4.0 mph SW6.4 kmh SW -- 29.70 in1005.8 mb 0.00 in0.0 mm 0.00 in0.0 mm 0.00 in0.0 mm
11:10 PM 34.6°F1.4°C 26.1°F-3.3°C 71% 4.0 mph SW6.4 kmh SW -- 29.69 in1005.4 mb 0.00 in0.0 mm 0.00 in0.0 mm 0.00 in0.0 mm
11:15 PM 35.5°F1.9°C 26.6°F-3.0°C 70% 8.0 mph WSW12.9 kmh WSW 14.0 mph22.5 kmh 29.69 in1005.4 mb 0.00 in0.0 mm 0.00 in0.0 mm 0.00 in0.0 mm
11:20 PM 36.1°F2.3°C 27.3°F-2.6°C 70% 3.0 mph SSW4.8 kmh SSW -- 29.70 in1005.8 mb 0.00 in0.0 mm 0.00 in0.0 mm 0.00 in0.0 mm
11:25 PM 36.1°F2.3°C 27.7°F-2.4°C 71% 6.0 mph WSW9.7 kmh WSW -- 29.70 in1005.8 mb 0.00 in0.0 mm 0.00 in0.0 mm 0.00 in0.0 mm
11:30 PM 36.1°F2.3°C 28.0°F-2.2°C 72% 3.0 mph SSW4.8 kmh SSW -- 29.69 in1005.4 mb 0.00 in0.0 mm 0.00 in0.0 mm 0.00 in0.0 mm
11:35 PM 35.9°F2.2°C 28.6°F-1.9°C 74% 6.0 mph SW9.7 kmh SW -- 29.70 in1005.8 mb 0.00 in0.0 mm 0.00 in0.0 mm 0.00 in0.0 mm
11:40 PM 35.7°F2.1°C 28.4°F-2.0°C 74% 7.0 mph SW11.3 kmh SW 10.0 mph16.1 kmh 29.69 in1005.4 mb 0.00 in0.0 mm 0.00 in0.0 mm 0.00 in0.0 mm
11:45 PM 35.6°F2.0°C 28.2°F-2.1°C 74% 5.0 mph SW8.0 kmh SW -- 29.69 in1005.4 mb 0.00 in0.0 mm 0.00 in0.0 mm 0.00 in0.0 mm
11:50 PM 35.7°F2.1°C 28.4°F-2.0°C 74% 1.0 mph SW1.6 kmh SW -- 29.69 in1005.4 mb 0.00 in0.0 mm 0.00 in0.0 mm 0.00 in0.0 mm
11:55 PM 35.6°F2.0°C 28.2°F-2.1°C 74% 6.0 mph SW9.7 kmh SW -- 29.69 in1005.4 mb 0.00 in0.0 mm 0.00 in0.0 mm 0.00 in0.0 mm